Time;durP1;ratioP1;P1;durP2;ratioP2;P2;SDS_P1;SDS_P2;PMS_P1;PMS_P2;Temp;Humidity;BMP_temperature;BMP_pressure;BME280_temperature;BME280_humidity;BME280_pressure;Samples;Min_cycle;Max_cycle;Signal;HPM_P1;HPM_P2
2023/02/18 08:40:47;;;;;;;23.40;5.80;;;;;;;6.20;50.73;98709.89;102133;1292;636674;-78
2023/02/18 08:43:16;;;;;;;19.00;4.60;;;;;;;6.25;50.53;98711.67;104391;1266;94342;-80
2023/02/18 08:45:45;;;;;;;20.70;5.90;;;;;;;6.35;50.69;98722.88;104833;1262;94387;-79
2023/02/18 08:48:13;;;;;;;10.80;2.70;;;;;;;6.43;50.39;98715.72;104641;1264;107048;-76
2023/02/18 08:50:47;;;;;;;10.50;3.00;;;;;;;6.50;50.76;98711.45;104985;1256;100575;-75
2023/02/18 13:32:01;;;;;;;18.20;6.40;;;;;;;8.39;48.78;98578.61;103289;1282;649080;-84
2023/02/18 13:35:00;;;;;;;23.50;8.10;;;;;;;8.33;49.46;98591.76;104383;1270;121095;-82
2023/02/18 13:37:39;;;;;;;14.90;4.90;;;;;;;8.22;49.99;98589.70;104649;1264;94235;-82
2023/02/18 13:40:24;;;;;;;13.20;3.80;;;;;;;8.08;50.68;98591.58;104804;1263;108014;-86
2023/02/18 13:42:53;;;;;;;11.70;3.50;;;;;;;7.95;51.35;98589.85;105047;1262;100952;-84
2023/02/18 13:45:31;;;;;;;8.90;3.40;;;;;;;7.87;51.47;98588.29;104640;1267;107372;-85
2023/02/18 13:48:00;;;;;;;9.00;3.30;;;;;;;7.79;51.43;98593.05;104507;1266;94222;-84
2023/02/18 13:50:32;;;;;;;16.40;5.90;;;;;;;7.75;51.96;98595.78;104744;1266;94315;-77
2023/02/18 13:53:07;;;;;;;19.80;6.70;;;;;;;7.74;52.35;98594.93;104672;1267;107278;-84
2023/02/18 13:56:27;;;;;;;14.70;4.60;;;;;;;7.77;51.91;98576.95;104581;1267;100187;-84
2023/02/18 13:59:07;;;;;;;15.10;5.70;;;;;;;7.78;52.32;98575.13;104876;1267;106245;-85
2023/02/18 14:01:48;;;;;;;16.90;5.80;;;;;;;7.75;53.55;98579.15;105031;1264;95326;-84
2023/02/18 14:04:40;;;;;;;17.10;5.60;;;;;;;7.75;53.53;98564.69;107335;1253;95373;-80
2023/02/18 14:07:24;;;;;;;16.80;5.60;;;;;;;7.82;53.17;98560.89;105324;1256;109140;-81
2023/02/18 14:09:57;;;;;;;18.30;6.30;;;;;;;7.92;52.74;98550.48;105353;1257;101017;-85
2023/02/18 14:12:36;;;;;;;20.00;6.50;;;;;;;7.95;52.72;98553.09;105329;1257;107625;-82
2023/02/18 14:15:20;;;;;;;20.30;7.20;;;;;;;7.91;53.02;98553.23;105325;1256;95240;-81
2023/02/18 14:17:58;;;;;;;20.80;6.90;;;;;;;7.82;53.07;98548.34;105221;1255;95282;-83
2023/02/18 14:20:36;;;;;;;23.90;8.60;;;;;;;7.76;53.35;98540.84;105488;1253;108542;-83
2023/02/18 14:23:17;;;;;;;23.20;8.60;;;;;;;7.71;53.27;98543.29;105223;1266;100872;-77
2023/02/18 14:25:56;;;;;;;21.50;8.40;;;;;;;7.62;53.98;98541.60;105491;1255;107663;-82
2023/02/18 14:28:33;;;;;;;20.40;7.20;;;;;;;7.54;53.58;98537.01;106561;1252;95260;-84
2023/02/18 14:31:05;;;;;;;17.20;6.40;;;;;;;7.48;53.30;98528.11;105429;1256;95466;-83
2023/02/18 14:33:35;;;;;;;18.80;6.50;;;;;;;7.43;53.47;98515.34;105397;1256;108793;-79
2023/02/18 14:36:41;;;;;;;24.90;10.40;;;;;;;7.42;53.24;98513.48;105602;1256;100870;-83
2023/02/18 14:39:28;;;;;;;23.30;8.90;;;;;;;7.42;53.39;98503.98;105334;1257;106530;-84
2023/02/18 14:42:26;;;;;;;19.90;6.40;;;;;;;7.40;53.87;98499.89;105150;1256;95173;-78
2023/02/18 14:45:30;;;;;;;27.70;9.80;;;;;;;7.31;55.51;98494.52;105213;1256;95638;-83
2023/02/18 14:48:17;;;;;;;28.80;10.60;;;;;;;7.24;55.46;98485.27;105297;1252;108661;-82
2023/02/18 14:50:49;;;;;;;27.40;9.80;;;;;;;7.20;54.38;98473.92;105208;1256;100509;-82
2023/02/18 14:53:23;;;;;;;27.40;9.20;;;;;;;7.18;55.24;98468.96;105180;1267;107684;-82
2023/02/18 14:56:02;;;;;;;28.30;10.40;;;;;;;7.13;55.14;98466.41;105438;1251;95237;-85
2023/02/18 14:58:33;;;;;;;36.70;16.40;;;;;;;7.08;55.18;98463.09;105391;1253;95729;-79
2023/02/18 15:01:26;;;;;;;58.40;40.00;;;;;;;7.02;55.54;98453.21;105145;1256;107895;-87
2023/02/18 15:03:55;;;;;;;57.60;37.60;;;;;;;6.98;55.41;98450.35;105370;1254;102739;-82
2023/02/18 15:06:37;;;;;;;44.60;21.10;;;;;;;6.94;55.36;98445.84;105379;1256;107615;-84
2023/02/18 15:09:16;;;;;;;35.90;16.20;;;;;;;6.90;55.81;98443.48;105371;1254;95275;-80
2023/02/18 15:11:54;;;;;;;41.90;22.00;;;;;;;6.86;55.59;98440.21;105320;1253;96443;-76
2023/02/18 15:14:26;;;;;;;48.40;25.60;;;;;;;6.84;55.29;98434.92;105310;1254;108123;-85
2023/02/18 15:16:55;;;;;;;35.40;16.50;;;;;;;6.82;55.18;98434.46;105439;1252;100486;-82
2023/02/18 15:19:33;;;;;;;24.80;9.10;;;;;;;6.81;54.83;98431.05;108380;1252;107148;-82
2023/02/18 15:22:02;;;;;;;24.60;9.30;;;;;;;6.80;55.82;98431.45;108382;1252;94118;-82
2023/02/18 15:24:34;;;;;;;26.20;9.90;;;;;;;6.79;55.15;98425.52;105873;1253;96517;-82
2023/02/18 15:27:15;;;;;;;30.60;12.10;;;;;;;6.79;55.61;98423.22;107224;1253;108537;-83
2023/02/18 15:29:49;;;;;;;33.80;16.50;;;;;;;6.78;55.54;98413.98;105510;1253;100743;-78
2023/02/18 15:32:23;;;;;;;;;;;;;;;6.77;55.39;98409.09;105406;1251;107208;-81
2023/02/18 15:34:55;;;;;;;34.50;15.80;;;;;;;6.76;55.32;98404.95;105383;1256;95308;-76
2023/02/18 15:37:23;;;;;;;33.30;14.40;;;;;;;6.76;55.11;98400.92;105198;1256;95494;-81
2023/02/18 15:39:53;;;;;;;48.80;21.90;;;;;;;6.75;54.93;98397.59;105354;1256;108642;-83
2023/02/18 15:42:29;;;;;;;71.30;32.00;;;;;;;6.76;55.05;98386.82;105298;1254;100831;-85
2023/02/18 15:45:13;;;;;;;60.60;26.80;;;;;;;6.75;55.19;98381.59;105264;1256;107499;-79
2023/02/18 15:47:53;;;;;;;83.80;42.00;;;;;;;6.74;55.34;98375.63;107863;1253;95136;-80
2023/02/18 15:50:32;;;;;;;115.40;47.00;;;;;;;6.74;55.38;98362.77;105677;1256;96034;-83
2023/02/18 15:53:12;;;;;;;90.60;38.50;;;;;;;6.74;55.36;98356.30;105354;1257;108930;-82
2023/02/18 15:55:45;;;;;;;56.60;26.50;;;;;;;6.74;55.60;98348.70;106041;1252;100770;-84
2023/02/18 15:58:28;;;;;;;42.20;19.70;;;;;;;6.74;55.33;98345.69;105359;1254;109741;-83
2023/02/18 16:01:02;;;;;;;40.10;19.00;;;;;;;6.74;55.72;98351.14;105384;1253;95325;-83
2023/02/18 16:03:44;;;;;;;27.80;13.40;;;;;;;6.74;55.43;98344.27;105357;1255;95233;-76
2023/02/18 16:06:25;;;;;;;25.90;12.20;;;;;;;6.73;55.58;98334.16;105123;1253;109869;-82
2023/02/18 16:09:03;;;;;;;126.10;52.70;;;;;;;6.71;55.73;98318.27;105154;1256;101129;-82
2023/02/18 16:11:38;;;;;;;45.00;21.80;;;;;;;6.69;55.92;98319.98;105150;1266;107732;-81
2023/02/18 16:14:06;;;;;;;77.30;34.30;;;;;;;6.66;56.10;98316.60;105387;1251;95224;-82
2023/02/18 16:16:38;;;;;;;60.20;29.00;;;;;;;6.65;56.06;98314.04;105256;1252;95804;-81
2023/02/18 16:19:23;;;;;;;121.70;54.00;;;;;;;6.65;56.16;98314.78;105269;1256;108129;-81
2023/02/18 16:21:51;;;;;;;150.30;70.00;;;;;;;6.63;56.60;98307.51;105135;1256;100356;-81
2023/02/18 16:24:32;;;;;;;124.20;62.90;;;;;;;6.62;56.49;98301.61;105329;1255;108245;-79
2023/02/18 16:27:02;;;;;;;173.10;86.80;;;;;;;6.61;56.61;98298.14;105158;1256;95250;-82
2023/02/18 16:29:36;;;;;;;144.70;77.20;;;;;;;6.60;56.42;98294.48;105310;1255;95634;-82
2023/02/18 16:32:04;;;;;;;121.30;71.40;;;;;;;6.60;56.73;98293.80;105327;1257;108122;-82
2023/02/18 16:34:35;;;;;;;77.30;47.50;;;;;;;6.59;56.69;98276.91;105375;1256;100786;-83
2023/02/18 16:39:53;;;;;;;138.50;80.30;;;;;;;6.54;57.01;98271.61;105395;1268;95365;-82
2023/02/18 16:42:21;;;;;;;193.70;128.30;;;;;;;6.52;57.29;98286.96;105172;1257;95279;-81
2023/02/18 16:44:50;;;;;;;155.30;94.30;;;;;;;6.48;57.03;98263.42;105422;1256;108535;-86
2023/02/18 16:47:19;;;;;;;163.70;97.10;;;;;;;6.46;57.35;98271.83;105480;1255;100994;-78
2023/02/18 16:49:50;;;;;;;122.10;74.50;;;;;;;6.44;57.13;98268.27;105276;1256;107575;-82
2023/02/18 16:52:19;;;;;;;156.80;111.70;;;;;;;6.42;57.39;98262.27;105589;1257;96059;-80
2023/02/18 16:54:48;;;;;;;83.50;57.90;;;;;;;6.37;57.47;98265.89;108422;1252;93410;-80
2023/02/18 16:57:17;;;;;;;53.70;36.30;;;;;;;6.36;57.48;98248.04;108543;1251;107875;-80
2023/02/18 16:59:45;;;;;;;53.00;33.90;;;;;;;6.35;57.45;98236.32;106080;1256;101552;-81
2023/02/18 17:02:18;;;;;;;50.60;31.20;;;;;;;6.33;57.74;98238.38;108648;1252;107054;-80
